createdAt,value
2023-05-18T00:00:14.850Z,8.07
2023-05-18T00:02:43.924Z,8.08
2023-05-18T00:05:11.918Z,8.00
2023-05-18T00:07:41.056Z,7.94
2023-05-18T00:10:11.544Z,7.96
2023-05-18T00:12:39.601Z,7.92
2023-05-18T00:15:10.522Z,7.87
2023-05-18T00:17:38.464Z,7.82
2023-05-18T00:20:10.330Z,7.79
2023-05-18T00:22:42.683Z,7.73
2023-05-18T00:25:10.665Z,7.70
2023-05-18T00:27:38.482Z,7.61
2023-05-18T00:30:09.616Z,7.55
2023-05-18T00:32:37.575Z,7.52
2023-05-18T00:35:06.847Z,7.48
2023-05-18T00:37:34.782Z,7.49
2023-05-18T00:40:02.647Z,7.46
2023-05-18T00:42:30.615Z,7.44
2023-05-18T00:44:58.637Z,7.43
2023-05-18T00:47:28.007Z,7.38
2023-05-18T00:49:56.020Z,7.37
2023-05-18T00:52:24.622Z,7.31
2023-05-18T00:54:53.881Z,7.33
2023-05-18T00:57:21.917Z,7.35
2023-05-18T00:59:50.085Z,7.26
2023-05-18T01:02:18.026Z,7.26
2023-05-18T01:04:47.227Z,7.21
2023-05-18T01:07:16.634Z,7.19
2023-05-18T01:09:44.713Z,7.13
2023-05-18T01:12:24.751Z,7.11
2023-05-18T01:15:08.826Z,7.13
2023-05-18T01:18:00.584Z,7.10
2023-05-18T01:20:40.135Z,7.07
2023-05-18T01:23:45.182Z,7.05
2023-05-18T01:26:16.741Z,7.10
2023-05-18T01:28:47.063Z,7.08
2023-05-18T01:31:16.614Z,7.11
2023-05-18T01:33:45.154Z,7.18
2023-05-18T01:36:13.293Z,7.19
2023-05-18T01:38:44.216Z,7.13
2023-05-18T01:41:20.229Z,7.16
2023-05-18T01:43:56.103Z,7.18
2023-05-18T01:46:40.691Z,7.18
2023-05-18T01:49:17.593Z,7.24
2023-05-18T01:51:48.210Z,7.18
2023-05-18T01:54:22.462Z,7.11
2023-05-18T01:56:55.997Z,7.16
2023-05-18T01:59:24.784Z,7.22
2023-05-18T02:02:00.291Z,7.16
2023-05-18T02:04:29.023Z,7.14
2023-05-18T02:06:57.250Z,7.14
2023-05-18T02:09:25.369Z,7.18
2023-05-18T02:11:54.538Z,7.19
2023-05-18T02:14:22.409Z,7.16
2023-05-18T02:16:52.863Z,7.15
2023-05-18T02:19:22.485Z,7.13
2023-05-18T02:21:50.448Z,7.19
2023-05-18T02:24:18.416Z,7.18
2023-05-18T02:26:46.398Z,7.19
2023-05-18T02:29:15.580Z,7.17
2023-05-18T02:31:43.704Z,7.09
2023-05-18T02:34:11.579Z,7.12
2023-05-18T02:36:42.732Z,7.13
2023-05-18T02:39:10.999Z,7.08
2023-05-18T02:41:38.841Z,7.03
2023-05-18T02:44:07.134Z,6.99
2023-05-18T02:46:36.528Z,6.97
2023-05-18T02:49:04.566Z,6.96
2023-05-18T02:51:32.890Z,6.94
2023-05-18T02:54:01.940Z,6.92
2023-05-18T02:56:32.775Z,6.91
2023-05-18T02:59:21.026Z,6.87
2023-05-18T03:01:50.592Z,6.85
2023-05-18T03:04:18.655Z,6.81
2023-05-18T03:06:52.911Z,6.76
2023-05-18T03:09:22.976Z,6.72
2023-05-18T03:11:54.662Z,6.74
2023-05-18T03:14:22.537Z,6.76
2023-05-18T03:16:54.402Z,6.68
2023-05-18T03:19:24.803Z,6.67
2023-05-18T03:21:53.520Z,6.65
2023-05-18T03:24:21.557Z,6.64
2023-05-18T03:26:54.116Z,6.62
2023-05-18T03:29:23.199Z,6.63
2023-05-18T03:31:53.559Z,6.57
2023-05-18T03:34:21.496Z,6.61
2023-05-18T03:36:51.708Z,6.60
2023-05-18T03:39:19.667Z,6.61
2023-05-18T03:41:47.535Z,6.59
2023-05-18T03:44:16.148Z,6.58
2023-05-18T03:46:44.313Z,6.60
2023-05-18T03:49:13.670Z,6.55
2023-05-18T03:51:43.647Z,6.54
2023-05-18T03:54:12.030Z,6.57
2023-05-18T03:56:40.050Z,6.49
2023-05-18T03:59:08.145Z,6.51
2023-05-18T04:01:36.449Z,6.53
2023-05-18T04:04:04.924Z,6.62
2023-05-18T04:06:35.470Z,6.63
2023-05-18T04:09:04.765Z,6.64
2023-05-18T04:11:32.656Z,6.64
2023-05-18T04:14:01.126Z,6.64
2023-05-18T04:16:29.201Z,6.73
2023-05-18T04:18:57.243Z,6.78
2023-05-18T04:21:25.297Z,6.77
2023-05-18T04:23:54.702Z,6.81
2023-05-18T04:26:22.584Z,6.90
2023-05-18T04:28:52.523Z,6.90
2023-05-18T04:31:20.503Z,6.98
2023-05-18T04:33:51.249Z,7.04
2023-05-18T04:36:21.397Z,7.03
2023-05-18T04:38:50.880Z,7.08
2023-05-18T04:41:20.696Z,7.09
2023-05-18T04:43:50.278Z,7.14
2023-05-18T04:46:18.771Z,7.22
2023-05-18T04:48:50.048Z,7.31
2023-05-18T04:51:21.509Z,7.38
2023-05-18T04:53:50.141Z,7.46
2023-05-18T04:56:18.624Z,7.54
2023-05-18T04:58:49.182Z,7.55
2023-05-18T05:01:18.921Z,7.69
2023-05-18T05:03:46.955Z,7.77
2023-05-18T05:06:15.935Z,7.96
2023-05-18T05:08:44.021Z,8.23
2023-05-18T05:11:12.178Z,8.40
2023-05-18T05:13:40.069Z,8.64
2023-05-18T05:16:09.343Z,8.65
2023-05-18T05:18:37.245Z,8.82
2023-05-18T05:21:06.392Z,9.04
2023-05-18T05:23:34.210Z,9.33
2023-05-18T05:26:02.325Z,9.49
2023-05-18T05:28:30.722Z,9.69
2023-05-18T05:30:58.531Z,9.70
2023-05-18T05:33:28.228Z,9.86
2023-05-18T05:35:56.267Z,9.90
2023-05-18T05:38:24.239Z,10.12
2023-05-18T05:40:52.198Z,10.18
2023-05-18T05:43:20.196Z,10.22
2023-05-18T05:45:48.637Z,10.40
2023-05-18T05:48:17.931Z,10.62
2023-05-18T05:50:47.808Z,10.68
2023-05-18T05:53:19.680Z,10.90
2023-05-18T05:55:48.593Z,10.82
2023-05-18T05:58:18.271Z,10.82
2023-05-18T06:00:53.911Z,10.85
2023-05-18T06:03:22.362Z,11.25
2023-05-18T06:05:52.184Z,11.37
2023-05-18T06:08:24.374Z,11.80
2023-05-18T06:10:54.011Z,11.94
2023-05-18T06:13:22.436Z,11.82
2023-05-18T06:15:55.818Z,11.94
2023-05-18T06:18:25.415Z,12.11
2023-05-18T06:20:59.020Z,12.13
2023-05-18T06:23:27.805Z,12.48
2023-05-18T06:26:04.652Z,12.53
2023-05-18T06:28:32.754Z,12.97
2023-05-18T06:31:24.292Z,13.07
2023-05-18T06:33:57.296Z,13.12
2023-05-18T06:36:26.858Z,13.03
2023-05-18T06:38:54.785Z,13.53
2023-05-18T06:41:22.735Z,13.74
2023-05-18T06:43:51.168Z,13.81
2023-05-18T06:46:31.158Z,13.62
2023-05-18T06:49:02.232Z,13.65
2023-05-18T06:51:31.669Z,14.00
2023-05-18T06:53:59.627Z,14.41
2023-05-18T06:56:27.710Z,14.20
2023-05-18T06:58:56.465Z,14.12
2023-05-18T07:01:25.730Z,14.62
2023-05-18T07:03:56.014Z,14.87
2023-05-18T07:06:24.050Z,15.05
2023-05-18T07:08:53.360Z,15.06
2023-05-18T07:11:22.053Z,15.14
2023-05-18T07:13:49.878Z,15.26
2023-05-18T07:16:17.783Z,15.62
2023-05-18T07:18:46.294Z,15.45
2023-05-18T07:21:14.198Z,15.56
2023-05-18T07:23:42.066Z,15.51
2023-05-18T07:26:12.098Z,15.78
2023-05-18T07:28:40.053Z,16.14
2023-05-18T07:31:07.850Z,16.18
2023-05-18T07:33:35.912Z,15.85
2023-05-18T07:36:04.443Z,16.17
2023-05-18T07:38:32.388Z,16.60
2023-05-18T07:41:00.321Z,16.24
2023-05-18T07:43:29.559Z,16.17
2023-05-18T07:45:57.464Z,16.34
2023-05-18T07:48:25.376Z,16.70
2023-05-18T07:50:54.046Z,16.95
2023-05-18T07:53:21.981Z,16.86
2023-05-18T07:55:50.100Z,16.65
2023-05-18T07:58:18.266Z,16.17
2023-05-18T08:00:47.593Z,16.36
2023-05-18T08:03:15.506Z,16.40
2023-05-18T08:05:43.376Z,16.20
2023-05-18T08:08:15.104Z,16.48
2023-05-18T08:10:43.107Z,17.05
2023-05-18T08:13:11.133Z,16.95
2023-05-18T08:15:41.110Z,16.95
2023-05-18T08:18:10.428Z,16.73
2023-05-18T08:20:38.799Z,16.84
2023-05-18T08:23:06.693Z,16.48
2023-05-18T08:25:34.772Z,16.67
2023-05-18T08:28:02.694Z,16.61
2023-05-18T08:30:30.916Z,16.31
2023-05-18T08:32:59.235Z,16.36
2023-05-18T08:35:28.653Z,16.72
2023-05-18T08:37:56.813Z,17.25
2023-05-18T08:40:33.619Z,16.92
2023-05-18T08:43:07.380Z,16.95
2023-05-18T08:45:44.068Z,16.82
2023-05-18T08:48:15.730Z,17.36
2023-05-18T08:50:47.109Z,17.50
2023-05-18T08:53:18.488Z,17.13
2023-05-18T08:55:49.786Z,17.26
2023-05-18T08:58:22.119Z,17.62
2023-05-18T09:00:54.256Z,17.67
2023-05-18T09:03:23.218Z,17.74
2023-05-18T09:05:53.488Z,18.42
2023-05-18T09:08:23.367Z,18.60
2023-05-18T09:10:52.670Z,19.05
2023-05-18T09:13:21.250Z,19.51
2023-05-18T09:15:49.320Z,19.76
2023-05-18T09:18:17.238Z,19.44
2023-05-18T09:20:45.744Z,19.08
2023-05-18T09:23:17.616Z,19.43
2023-05-18T09:25:49.769Z,19.71
2023-05-18T09:28:31.237Z,19.91
2023-05-18T09:30:59.233Z,20.10
2023-05-18T09:33:37.096Z,20.09
2023-05-18T09:36:07.062Z,20.03
2023-05-18T09:38:39.384Z,19.99
2023-05-18T09:41:11.284Z,19.66
2023-05-18T09:43:39.775Z,20.23
2023-05-18T09:46:09.619Z,20.08
2023-05-18T09:48:42.600Z,20.17
2023-05-18T09:51:11.858Z,20.27
2023-05-18T09:53:41.040Z,20.86
2023-05-18T09:56:12.048Z,21.04
2023-05-18T09:58:40.107Z,21.07
2023-05-18T10:01:07.952Z,20.90
2023-05-18T10:03:38.013Z,21.02
2023-05-18T10:06:08.152Z,20.65
2023-05-18T10:08:38.015Z,21.23
2023-05-18T10:11:07.713Z,21.28
2023-05-18T10:13:35.722Z,21.35
2023-05-18T10:16:07.645Z,20.81
2023-05-18T10:18:37.620Z,21.19
2023-05-18T10:21:08.184Z,21.24
2023-05-18T10:23:37.502Z,21.21
2023-05-18T10:26:09.682Z,21.59
2023-05-18T10:28:42.683Z,21.55
2023-05-18T10:31:11.016Z,21.54
2023-05-18T10:33:38.973Z,20.96
2023-05-18T10:36:10.370Z,21.15
2023-05-18T10:38:43.558Z,21.56
2023-05-18T10:41:14.793Z,21.50
2023-05-18T10:43:46.056Z,21.27
2023-05-18T10:46:16.203Z,21.63
2023-05-18T10:48:49.767Z,21.73
2023-05-18T10:51:20.212Z,22.12
2023-05-18T10:53:48.977Z,21.93
2023-05-18T10:56:18.828Z,22.18
2023-05-18T10:58:47.774Z,22.66
2023-05-18T11:01:16.335Z,22.50
2023-05-18T11:03:44.949Z,22.34
2023-05-18T11:06:15.022Z,22.52
2023-05-18T11:08:48.061Z,22.71
2023-05-18T11:11:19.503Z,23.42
2023-05-18T11:13:50.465Z,23.25
2023-05-18T11:16:19.400Z,23.33
2023-05-18T11:18:49.666Z,22.48
2023-05-18T11:21:50.467Z,22.05
2023-05-18T11:24:26.328Z,22.31
2023-05-18T11:26:58.905Z,21.95
2023-05-18T11:29:32.671Z,22.59
2023-05-18T11:32:01.514Z,22.15
2023-05-18T11:34:45.059Z,22.40
2023-05-18T11:37:15.153Z,22.24
2023-05-18T11:40:00.278Z,23.23
2023-05-18T11:42:36.466Z,23.66
2023-05-18T11:45:09.017Z,23.65
2023-05-18T11:47:40.554Z,23.84
2023-05-18T11:50:14.680Z,23.40
2023-05-18T11:52:48.214Z,23.97
2023-05-18T11:55:19.139Z,23.71
2023-05-18T11:57:52.415Z,23.28
2023-05-18T12:00:21.792Z,23.49
2023-05-18T12:02:50.259Z,23.62
2023-05-18T12:05:19.478Z,24.55
2023-05-18T12:07:53.894Z,24.11
2023-05-18T12:10:22.712Z,24.23
2023-05-18T12:12:52.999Z,24.33
2023-05-18T12:15:23.894Z,24.56
2023-05-18T12:17:52.074Z,23.97
2023-05-18T12:20:22.468Z,24.76
2023-05-18T12:22:53.918Z,23.90
2023-05-18T12:25:24.828Z,24.25
2023-05-18T12:27:55.520Z,23.94
2023-05-18T12:30:25.650Z,23.95
2023-05-18T12:32:57.311Z,24.62
2023-05-18T12:35:27.037Z,24.78
2023-05-18T12:37:58.017Z,24.13
2023-05-18T12:40:27.129Z,24.63
2023-05-18T12:42:59.573Z,23.59
2023-05-18T12:45:31.594Z,23.61
2023-05-18T12:48:05.501Z,24.32
2023-05-18T12:50:35.061Z,24.36
2023-05-18T12:53:03.149Z,24.33
2023-05-18T12:55:34.686Z,24.59
2023-05-18T12:58:07.306Z,24.58
2023-05-18T13:00:37.752Z,23.63
2023-05-18T13:03:07.231Z,22.76
2023-05-18T13:05:36.144Z,23.41
2023-05-18T13:08:04.488Z,24.50
2023-05-18T13:10:33.026Z,25.27
2023-05-18T13:13:03.838Z,24.66
2023-05-18T13:15:38.324Z,24.79
2023-05-18T13:18:12.042Z,24.93
2023-05-18T13:20:44.988Z,24.80
2023-05-18T13:23:16.736Z,23.77
2023-05-18T13:25:46.756Z,23.83
2023-05-18T13:28:17.304Z,24.47
2023-05-18T13:30:48.960Z,25.29
2023-05-18T13:33:21.489Z,24.64
2023-05-18T13:35:49.944Z,25.20
2023-05-18T13:38:17.952Z,24.29
2023-05-18T13:40:46.938Z,24.04
2023-05-18T13:43:14.762Z,24.35
2023-05-18T13:45:43.517Z,24.49
2023-05-18T13:48:14.219Z,24.77
2023-05-18T13:50:42.346Z,24.99
2023-05-18T13:53:10.722Z,25.28
2023-05-18T13:55:38.824Z,24.80
2023-05-18T13:58:06.945Z,25.01
2023-05-18T14:00:36.234Z,24.53
2023-05-18T14:03:04.443Z,24.05
2023-05-18T14:05:33.965Z,24.81
2023-05-18T14:08:02.224Z,24.73
2023-05-18T14:10:30.336Z,25.18
2023-05-18T14:12:58.501Z,25.40
2023-05-18T14:15:26.449Z,24.80
2023-05-18T14:17:54.334Z,24.09
2023-05-18T14:20:22.297Z,24.50
2023-05-18T14:22:51.747Z,24.87
2023-05-18T14:25:19.721Z,25.24
2023-05-18T14:27:49.240Z,24.78
2023-05-18T14:30:17.233Z,24.28
2023-05-18T14:32:45.342Z,24.82
2023-05-18T14:35:13.387Z,24.84
2023-05-18T14:37:41.222Z,24.18
2023-05-18T14:40:11.664Z,24.06
2023-05-18T14:42:39.699Z,23.05
2023-05-18T14:45:09.811Z,23.36
2023-05-18T14:47:37.697Z,23.12
2023-05-18T14:50:07.381Z,23.65
2023-05-18T14:52:35.823Z,23.61
2023-05-18T14:55:04.307Z,23.61
2023-05-18T14:57:33.655Z,23.40
2023-05-18T15:00:01.778Z,23.69
2023-05-18T15:02:29.719Z,23.52
2023-05-18T15:04:57.803Z,22.88
2023-05-18T15:07:25.823Z,22.96
2023-05-18T15:09:55.197Z,22.64
2023-05-18T15:12:23.635Z,22.37
2023-05-18T15:14:53.095Z,22.94
2023-05-18T15:17:21.244Z,23.25
2023-05-18T15:19:49.147Z,23.54
2023-05-18T15:22:16.968Z,23.62
2023-05-18T15:24:44.877Z,23.19
2023-05-18T15:27:12.906Z,23.18
2023-05-18T15:29:40.848Z,23.08
2023-05-18T15:32:10.150Z,22.86
2023-05-18T15:34:38.335Z,22.66
2023-05-18T15:37:06.265Z,22.86
2023-05-18T15:39:37.066Z,22.89
2023-05-18T15:42:05.575Z,23.01
2023-05-18T15:44:33.585Z,22.77
2023-05-18T15:47:01.999Z,22.53
2023-05-18T15:49:31.202Z,22.77
2023-05-18T15:51:59.230Z,22.55
2023-05-18T15:54:27.202Z,22.73
2023-05-18T15:56:55.050Z,22.59
2023-05-18T15:59:22.941Z,23.19
2023-05-18T16:01:51.050Z,23.39
2023-05-18T16:04:19.087Z,23.42
2023-05-18T16:06:48.607Z,22.94
2023-05-18T16:09:16.425Z,22.66
2023-05-18T16:11:44.271Z,22.61
2023-05-18T16:14:12.164Z,22.93
2023-05-18T16:16:40.166Z,22.98
2023-05-18T16:19:08.587Z,22.43
2023-05-18T16:21:36.487Z,22.35
2023-05-18T16:24:15.930Z,22.21
2023-05-18T16:26:44.067Z,22.29
2023-05-18T16:29:11.933Z,22.10
2023-05-18T16:31:43.334Z,21.76
2023-05-18T16:34:11.289Z,21.63
2023-05-18T16:36:39.390Z,21.38
2023-05-18T16:39:07.792Z,21.20
2023-05-18T16:41:36.981Z,21.76
2023-05-18T16:44:05.671Z,21.96
2023-05-18T16:46:33.723Z,21.98
2023-05-18T16:49:01.743Z,21.76
2023-05-18T16:51:29.628Z,21.59
2023-05-18T16:53:57.515Z,21.57
2023-05-18T16:56:25.329Z,21.19
2023-05-18T16:59:01.427Z,20.72
2023-05-18T17:01:30.891Z,21.06
2023-05-18T17:03:58.881Z,21.05
2023-05-18T17:06:27.093Z,21.17
2023-05-18T17:08:58.285Z,20.97
2023-05-18T17:11:27.664Z,20.81
2023-05-18T17:13:59.739Z,20.75
2023-05-18T17:16:28.353Z,20.98
2023-05-18T17:18:57.450Z,20.72
2023-05-18T17:21:28.111Z,20.39
2023-05-18T17:23:55.993Z,20.25
2023-05-18T17:26:27.415Z,20.24
2023-05-18T17:28:57.219Z,20.30
2023-05-18T17:31:25.520Z,20.22
2023-05-18T17:33:54.522Z,20.37
2023-05-18T17:36:22.725Z,20.14
2023-05-18T17:38:50.764Z,19.82
2023-05-18T17:41:21.319Z,19.70
2023-05-18T17:43:49.193Z,19.50
2023-05-18T17:46:18.574Z,19.56
2023-05-18T17:48:46.566Z,19.38
2023-05-18T17:51:15.270Z,19.19
2023-05-18T17:53:43.221Z,18.90
2023-05-18T17:56:12.184Z,18.62
2023-05-18T17:58:40.167Z,18.45
2023-05-18T18:01:08.996Z,18.58
2023-05-18T18:03:38.360Z,18.22
2023-05-18T18:06:07.210Z,18.10
2023-05-18T18:08:36.758Z,18.10
2023-05-18T18:11:05.890Z,18.03
2023-05-18T18:13:35.670Z,17.77
2023-05-18T18:16:03.836Z,17.61
2023-05-18T18:18:32.551Z,17.50
2023-05-18T18:21:02.127Z,17.30
2023-05-18T18:23:30.083Z,17.17
2023-05-18T18:25:58.568Z,17.12
2023-05-18T18:28:26.745Z,17.12
2023-05-18T18:30:54.839Z,17.00
2023-05-18T18:33:25.581Z,16.76
2023-05-18T18:35:54.752Z,16.69
2023-05-18T18:38:26.834Z,16.61
2023-05-18T18:41:00.794Z,16.50
2023-05-18T18:43:29.145Z,16.54
2023-05-18T18:45:57.262Z,16.59
2023-05-18T18:48:25.888Z,16.39
2023-05-18T18:50:53.868Z,16.36
2023-05-18T18:53:23.170Z,16.29
2023-05-18T18:55:51.051Z,16.19
2023-05-18T18:58:19.001Z,16.14
2023-05-18T19:00:46.918Z,16.10
2023-05-18T19:03:16.038Z,16.00
2023-05-18T19:05:43.949Z,15.88
2023-05-18T19:08:11.878Z,15.81
2023-05-18T19:10:41.126Z,15.69
2023-05-18T19:13:09.001Z,15.59
2023-05-18T19:15:36.875Z,15.48
2023-05-18T19:18:06.471Z,15.39
2023-05-18T19:20:34.999Z,15.43
2023-05-18T19:23:04.832Z,15.28
2023-05-18T19:25:33.295Z,15.17
2023-05-18T19:28:02.719Z,15.08
2023-05-18T19:30:30.748Z,15.07
2023-05-18T19:32:58.592Z,14.96
2023-05-18T19:35:26.692Z,14.88
2023-05-18T19:37:54.652Z,14.78
2023-05-18T19:40:22.928Z,14.77
2023-05-18T19:42:51.011Z,14.70
2023-05-18T19:45:20.273Z,14.65
2023-05-18T19:47:48.100Z,14.55
2023-05-18T19:50:16.187Z,14.49
2023-05-18T19:52:44.225Z,14.48
2023-05-18T19:55:12.233Z,14.42
2023-05-18T19:57:40.193Z,14.35
2023-05-18T20:00:11.254Z,14.33
2023-05-18T20:02:43.946Z,14.23
2023-05-18T20:05:12.495Z,14.15
2023-05-18T20:07:41.006Z,14.16
2023-05-18T20:10:09.575Z,14.10
2023-05-18T20:12:37.475Z,14.05
2023-05-18T20:15:07.667Z,14.04
2023-05-18T20:17:37.045Z,13.87
2023-05-18T20:20:08.335Z,13.84
2023-05-18T20:22:36.548Z,13.87
2023-05-18T20:25:06.889Z,13.79
2023-05-18T20:27:35.076Z,13.72
2023-05-18T20:30:03.402Z,13.68
2023-05-18T20:32:32.634Z,13.62
2023-05-18T20:35:00.665Z,13.53
2023-05-18T20:37:30.208Z,13.43
2023-05-18T20:39:58.478Z,13.40
2023-05-18T20:42:38.631Z,13.43
2023-05-18T20:45:08.274Z,13.35
2023-05-18T20:47:36.307Z,13.36
2023-05-18T20:50:05.118Z,13.34
2023-05-18T20:52:34.389Z,13.21
2023-05-18T20:55:02.396Z,13.18
2023-05-18T20:57:30.794Z,13.21
2023-05-18T20:59:58.576Z,13.08
2023-05-18T21:02:26.621Z,13.04
2023-05-18T21:04:57.617Z,13.03
2023-05-18T21:07:25.579Z,12.95
2023-05-18T21:09:54.907Z,12.86
2023-05-18T21:12:22.866Z,12.91
2023-05-18T21:14:50.931Z,12.85
2023-05-18T21:17:20.587Z,12.79
2023-05-18T21:19:49.830Z,12.76
2023-05-18T21:22:17.750Z,12.76
2023-05-18T21:24:45.964Z,12.65
2023-05-18T21:27:15.243Z,12.59
2023-05-18T21:29:43.389Z,12.55
2023-05-18T21:32:11.425Z,12.52
2023-05-18T21:34:41.956Z,12.55
2023-05-18T21:37:11.601Z,12.46
2023-05-18T21:39:41.876Z,12.43
2023-05-18T21:42:09.877Z,12.43
2023-05-18T21:44:39.154Z,12.44
2023-05-18T21:47:07.392Z,12.43
2023-05-18T21:49:35.419Z,12.39
2023-05-18T21:52:03.600Z,12.36
2023-05-18T21:54:33.301Z,12.32
2023-05-18T21:57:01.822Z,12.22
2023-05-18T21:59:29.607Z,12.21
2023-05-18T22:01:58.804Z,12.20
2023-05-18T22:04:26.830Z,12.17
2023-05-18T22:06:54.983Z,12.11
2023-05-18T22:09:22.823Z,12.09
2023-05-18T22:11:50.694Z,12.05
2023-05-18T22:14:18.704Z,11.97
2023-05-18T22:16:47.102Z,11.97
2023-05-18T22:19:16.397Z,11.92
2023-05-18T22:21:44.419Z,11.85
2023-05-18T22:24:12.293Z,11.82
2023-05-18T22:26:41.797Z,11.76
2023-05-18T22:29:09.782Z,11.72
2023-05-18T22:31:37.865Z,11.62
2023-05-18T22:34:06.059Z,11.63
2023-05-18T22:36:35.564Z,11.63
2023-05-18T22:39:03.873Z,11.56
2023-05-18T22:41:31.676Z,11.56
2023-05-18T22:43:59.652Z,11.53
2023-05-18T22:46:27.493Z,11.48
2023-05-18T22:48:55.460Z,11.40
2023-05-18T22:51:23.441Z,11.37
2023-05-18T22:53:52.664Z,11.40
2023-05-18T22:56:21.763Z,11.35
2023-05-18T22:58:49.966Z,11.31
2023-05-18T23:01:17.757Z,11.37
2023-05-18T23:03:45.780Z,11.34
2023-05-18T23:06:14.040Z,11.35
2023-05-18T23:08:43.323Z,11.36
2023-05-18T23:11:12.421Z,11.35
2023-05-18T23:13:40.543Z,11.27
2023-05-18T23:16:10.252Z,11.25
2023-05-18T23:18:38.922Z,11.20
2023-05-18T23:21:09.089Z,11.19
2023-05-18T23:23:37.072Z,11.18
2023-05-18T23:26:04.968Z,11.15
2023-05-18T23:28:34.278Z,11.10
2023-05-18T23:31:02.166Z,11.08
2023-05-18T23:33:31.079Z,11.01
2023-05-18T23:36:03.945Z,11.02
2023-05-18T23:38:34.645Z,10.98
2023-05-18T23:41:04.383Z,10.93
2023-05-18T23:43:34.574Z,10.92
2023-05-18T23:46:04.988Z,10.92
2023-05-18T23:48:33.987Z,10.97
2023-05-18T23:51:03.316Z,10.91
2023-05-18T23:53:32.824Z,10.87
2023-05-18T23:56:02.655Z,10.87
2023-05-18T23:58:34.094Z,10.81
